sensor_id;sensor_type;location;lat;lon;timestamp;P1;durP1;ratioP1;P2;durP2;ratioP2
55053;SDS011;40954;45.668;18.980;2022-07-23T00:01:30;7.45;;;5.93;;
55053;SDS011;40954;45.668;18.980;2022-07-23T00:03:57;7.38;;;6.50;;
55053;SDS011;40954;45.668;18.980;2022-07-23T00:06:24;6.60;;;5.90;;
55053;SDS011;40954;45.668;18.980;2022-07-23T00:08:50;9.10;;;5.13;;
55053;SDS011;40954;45.668;18.980;2022-07-23T00:11:16;7.70;;;5.25;;
55053;SDS011;40954;45.668;18.980;2022-07-23T00:13:43;7.57;;;6.13;;
55053;SDS011;40954;45.668;18.980;2022-07-23T00:16:09;8.60;;;5.13;;
55053;SDS011;40954;45.668;18.980;2022-07-23T00:18:35;6.65;;;4.95;;
55053;SDS011;40954;45.668;18.980;2022-07-23T00:21:01;7.68;;;5.00;;
55053;SDS011;40954;45.668;18.980;2022-07-23T00:23:27;8.27;;;4.82;;
55053;SDS011;40954;45.668;18.980;2022-07-23T00:25:55;7.65;;;4.47;;
55053;SDS011;40954;45.668;18.980;2022-07-23T00:28:22;7.38;;;5.05;;
55053;SDS011;40954;45.668;18.980;2022-07-23T00:30:48;8.52;;;4.53;;
55053;SDS011;40954;45.668;18.980;2022-07-23T00:33:14;4.80;;;4.38;;
55053;SDS011;40954;45.668;18.980;2022-07-23T00:35:40;9.45;;;4.93;;
55053;SDS011;40954;45.668;18.980;2022-07-23T00:38:07;5.72;;;4.32;;
55053;SDS011;40954;45.668;18.980;2022-07-23T00:40:34;7.20;;;4.90;;
55053;SDS011;40954;45.668;18.980;2022-07-23T00:43:01;5.55;;;4.70;;
55053;SDS011;40954;45.668;18.980;2022-07-23T00:45:27;7.25;;;4.82;;
55053;SDS011;40954;45.668;18.980;2022-07-23T00:47:53;10.85;;;5.75;;
55053;SDS011;40954;45.668;18.980;2022-07-23T00:50:19;10.60;;;5.75;;
55053;SDS011;40954;45.668;18.980;2022-07-23T00:52:45;7.60;;;5.78;;
55053;SDS011;40954;45.668;18.980;2022-07-23T00:55:12;9.93;;;5.55;;
55053;SDS011;40954;45.668;18.980;2022-07-23T00:57:38;9.00;;;5.53;;
55053;SDS011;40954;45.668;18.980;2022-07-23T01:00:05;10.38;;;6.07;;
55053;SDS011;40954;45.668;18.980;2022-07-23T01:02:32;8.65;;;6.25;;
55053;SDS011;40954;45.668;18.980;2022-07-23T01:04:58;8.82;;;5.88;;
55053;SDS011;40954;45.668;18.980;2022-07-23T01:07:24;9.90;;;7.75;;
55053;SDS011;40954;45.668;18.980;2022-07-23T01:09:50;9.70;;;7.82;;
55053;SDS011;40954;45.668;18.980;2022-07-23T01:12:17;8.77;;;7.40;;
55053;SDS011;40954;45.668;18.980;2022-07-23T01:14:43;14.73;;;8.18;;
55053;SDS011;40954;45.668;18.980;2022-07-23T01:17:09;9.07;;;6.57;;
55053;SDS011;40954;45.668;18.980;2022-07-23T01:19:35;9.25;;;6.63;;
55053;SDS011;40954;45.668;18.980;2022-07-23T01:22:02;6.88;;;6.13;;
55053;SDS011;40954;45.668;18.980;2022-07-23T01:24:29;9.82;;;7.20;;
55053;SDS011;40954;45.668;18.980;2022-07-23T01:26:55;9.32;;;6.15;;
55053;SDS011;40954;45.668;18.980;2022-07-23T01:29:21;10.77;;;6.60;;
55053;SDS011;40954;45.668;18.980;2022-07-23T01:31:47;11.13;;;6.20;;
55053;SDS011;40954;45.668;18.980;2022-07-23T01:34:14;10.40;;;5.97;;
55053;SDS011;40954;45.668;18.980;2022-07-23T01:36:40;8.65;;;5.18;;
55053;SDS011;40954;45.668;18.980;2022-07-23T01:39:06;6.13;;;5.30;;
55053;SDS011;40954;45.668;18.980;2022-07-23T01:41:33;10.35;;;5.30;;
55053;SDS011;40954;45.668;18.980;2022-07-23T01:43:59;6.28;;;5.53;;
55053;SDS011;40954;45.668;18.980;2022-07-23T01:46:25;8.40;;;4.53;;
55053;SDS011;40954;45.668;18.980;2022-07-23T01:48:51;7.68;;;4.93;;
55053;SDS011;40954;45.668;18.980;2022-07-23T01:51:17;7.75;;;4.68;;
55053;SDS011;40954;45.668;18.980;2022-07-23T01:53:43;5.20;;;3.78;;
55053;SDS011;40954;45.668;18.980;2022-07-23T01:56:09;8.68;;;3.78;;
55053;SDS011;40954;45.668;18.980;2022-07-23T01:58:35;6.68;;;3.90;;
55053;SDS011;40954;45.668;18.980;2022-07-23T02:01:01;10.00;;;4.88;;
55053;SDS011;40954;45.668;18.980;2022-07-23T02:03:28;5.80;;;4.97;;
55053;SDS011;40954;45.668;18.980;2022-07-23T02:05:54;6.28;;;4.38;;
55053;SDS011;40954;45.668;18.980;2022-07-23T02:08:20;8.80;;;4.63;;
55053;SDS011;40954;45.668;18.980;2022-07-23T02:10:46;6.00;;;3.70;;
55053;SDS011;40954;45.668;18.980;2022-07-23T02:13:13;5.32;;;4.32;;
55053;SDS011;40954;45.668;18.980;2022-07-23T02:15:39;6.43;;;4.32;;
55053;SDS011;40954;45.668;18.980;2022-07-23T02:18:05;6.20;;;4.50;;
55053;SDS011;40954;45.668;18.980;2022-07-23T02:20:33;5.45;;;4.28;;
55053;SDS011;40954;45.668;18.980;2022-07-23T02:22:59;6.50;;;4.18;;
55053;SDS011;40954;45.668;18.980;2022-07-23T02:25:25;5.50;;;3.72;;
55053;SDS011;40954;45.668;18.980;2022-07-23T02:27:51;8.13;;;4.30;;
55053;SDS011;40954;45.668;18.980;2022-07-23T02:30:17;6.55;;;4.65;;
55053;SDS011;40954;45.668;18.980;2022-07-23T02:32:43;13.20;;;5.40;;
55053;SDS011;40954;45.668;18.980;2022-07-23T02:35:09;8.05;;;5.57;;
55053;SDS011;40954;45.668;18.980;2022-07-23T02:37:35;11.95;;;5.68;;
55053;SDS011;40954;45.668;18.980;2022-07-23T02:40:01;9.63;;;6.78;;
55053;SDS011;40954;45.668;18.980;2022-07-23T02:42:28;7.75;;;6.10;;
55053;SDS011;40954;45.668;18.980;2022-07-23T02:44:54;13.10;;;5.82;;
55053;SDS011;40954;45.668;18.980;2022-07-23T02:47:20;10.57;;;5.75;;
55053;SDS011;40954;45.668;18.980;2022-07-23T02:49:46;8.73;;;6.00;;
55053;SDS011;40954;45.668;18.980;2022-07-23T02:52:12;7.22;;;5.68;;
55053;SDS011;40954;45.668;18.980;2022-07-23T02:54:38;9.00;;;5.68;;
55053;SDS011;40954;45.668;18.980;2022-07-23T02:57:04;8.15;;;5.18;;
55053;SDS011;40954;45.668;18.980;2022-07-23T02:59:30;6.03;;;4.78;;
55053;SDS011;40954;45.668;18.980;2022-07-23T03:01:56;9.88;;;5.95;;
55053;SDS011;40954;45.668;18.980;2022-07-23T03:04:23;11.88;;;6.25;;
55053;SDS011;40954;45.668;18.980;2022-07-23T03:06:49;11.73;;;7.65;;
55053;SDS011;40954;45.668;18.980;2022-07-23T03:09:15;13.18;;;7.40;;
55053;SDS011;40954;45.668;18.980;2022-07-23T03:11:41;21.63;;;9.38;;
55053;SDS011;40954;45.668;18.980;2022-07-23T03:14:07;22.33;;;12.73;;
55053;SDS011;40954;45.668;18.980;2022-07-23T03:16:33;26.70;;;14.98;;
55053;SDS011;40954;45.668;18.980;2022-07-23T03:18:59;29.65;;;17.52;;
55053;SDS011;40954;45.668;18.980;2022-07-23T03:21:25;26.80;;;16.38;;
55053;SDS011;40954;45.668;18.980;2022-07-23T03:23:51;38.78;;;19.75;;
55053;SDS011;40954;45.668;18.980;2022-07-23T03:26:17;42.60;;;26.15;;
55053;SDS011;40954;45.668;18.980;2022-07-23T03:28:43;57.47;;;28.98;;
55053;SDS011;40954;45.668;18.980;2022-07-23T03:31:09;46.78;;;24.50;;
55053;SDS011;40954;45.668;18.980;2022-07-23T03:33:35;44.50;;;25.58;;
55053;SDS011;40954;45.668;18.980;2022-07-23T03:36:01;57.40;;;31.55;;
55053;SDS011;40954;45.668;18.980;2022-07-23T03:38:28;49.55;;;27.10;;
55053;SDS011;40954;45.668;18.980;2022-07-23T03:40:54;51.40;;;28.48;;
55053;SDS011;40954;45.668;18.980;2022-07-23T03:43:20;49.78;;;28.80;;
55053;SDS011;40954;45.668;18.980;2022-07-23T03:45:46;43.53;;;26.15;;
55053;SDS011;40954;45.668;18.980;2022-07-23T03:48:12;35.75;;;22.27;;
55053;SDS011;40954;45.668;18.980;2022-07-23T03:50:38;33.25;;;18.70;;
55053;SDS011;40954;45.668;18.980;2022-07-23T03:53:04;37.47;;;18.70;;
55053;SDS011;40954;45.668;18.980;2022-07-23T03:55:30;23.30;;;14.82;;
55053;SDS011;40954;45.668;18.980;2022-07-23T03:57:56;24.58;;;15.00;;
55053;SDS011;40954;45.668;18.980;2022-07-23T04:00:22;30.77;;;16.58;;
55053;SDS011;40954;45.668;18.980;2022-07-23T04:02:48;27.45;;;17.10;;
55053;SDS011;40954;45.668;18.980;2022-07-23T04:05:14;25.35;;;16.15;;
55053;SDS011;40954;45.668;18.980;2022-07-23T04:07:40;29.35;;;14.95;;
55053;SDS011;40954;45.668;18.980;2022-07-23T04:10:07;26.00;;;14.65;;
55053;SDS011;40954;45.668;18.980;2022-07-23T04:12:33;21.38;;;14.27;;
55053;SDS011;40954;45.668;18.980;2022-07-23T04:14:59;22.88;;;13.65;;
55053;SDS011;40954;45.668;18.980;2022-07-23T04:17:25;20.05;;;12.63;;
55053;SDS011;40954;45.668;18.980;2022-07-23T04:19:51;23.80;;;13.38;;
55053;SDS011;40954;45.668;18.980;2022-07-23T04:22:17;22.25;;;13.23;;
55053;SDS011;40954;45.668;18.980;2022-07-23T04:24:43;30.75;;;15.05;;
55053;SDS011;40954;45.668;18.980;2022-07-23T04:27:10;25.77;;;15.13;;
55053;SDS011;40954;45.668;18.980;2022-07-23T04:29:36;25.13;;;14.23;;
55053;SDS011;40954;45.668;18.980;2022-07-23T04:32:02;22.10;;;13.63;;
55053;SDS011;40954;45.668;18.980;2022-07-23T04:34:28;16.83;;;11.52;;
55053;SDS011;40954;45.668;18.980;2022-07-23T04:36:54;19.08;;;10.65;;
55053;SDS011;40954;45.668;18.980;2022-07-23T04:39:20;16.88;;;9.80;;
55053;SDS011;40954;45.668;18.980;2022-07-23T04:41:46;14.02;;;8.82;;
55053;SDS011;40954;45.668;18.980;2022-07-23T04:44:12;14.85;;;8.20;;
55053;SDS011;40954;45.668;18.980;2022-07-23T04:46:38;13.05;;;8.20;;
55053;SDS011;40954;45.668;18.980;2022-07-23T04:49:05;13.90;;;8.35;;
55053;SDS011;40954;45.668;18.980;2022-07-23T04:51:31;16.45;;;9.13;;
55053;SDS011;40954;45.668;18.980;2022-07-23T04:53:57;9.75;;;7.63;;
55053;SDS011;40954;45.668;18.980;2022-07-23T04:56:23;21.42;;;11.18;;
55053;SDS011;40954;45.668;18.980;2022-07-23T04:58:49;23.85;;;16.42;;
55053;SDS011;40954;45.668;18.980;2022-07-23T05:01:15;24.88;;;15.82;;
55053;SDS011;40954;45.668;18.980;2022-07-23T05:03:41;15.70;;;8.48;;
55053;SDS011;40954;45.668;18.980;2022-07-23T05:06:07;14.93;;;7.38;;
55053;SDS011;40954;45.668;18.980;2022-07-23T05:08:33;11.32;;;7.13;;
55053;SDS011;40954;45.668;18.980;2022-07-23T05:10:59;11.35;;;6.43;;
55053;SDS011;40954;45.668;18.980;2022-07-23T05:13:25;14.52;;;7.07;;
55053;SDS011;40954;45.668;18.980;2022-07-23T05:15:51;11.23;;;6.25;;
55053;SDS011;40954;45.668;18.980;2022-07-23T05:18:18;12.00;;;6.70;;
55053;SDS011;40954;45.668;18.980;2022-07-23T05:20:44;14.35;;;7.40;;
55053;SDS011;40954;45.668;18.980;2022-07-23T05:23:10;15.68;;;6.88;;
55053;SDS011;40954;45.668;18.980;2022-07-23T05:25:36;12.73;;;6.82;;
55053;SDS011;40954;45.668;18.980;2022-07-23T05:28:02;15.10;;;9.43;;
55053;SDS011;40954;45.668;18.980;2022-07-23T05:30:28;16.38;;;10.90;;
55053;SDS011;40954;45.668;18.980;2022-07-23T05:32:54;16.52;;;8.60;;
55053;SDS011;40954;45.668;18.980;2022-07-23T05:35:20;13.70;;;7.93;;
55053;SDS011;40954;45.668;18.980;2022-07-23T05:37:46;27.15;;;10.60;;
55053;SDS011;40954;45.668;18.980;2022-07-23T05:40:13;15.95;;;9.10;;
55053;SDS011;40954;45.668;18.980;2022-07-23T05:42:39;13.27;;;7.95;;
55053;SDS011;40954;45.668;18.980;2022-07-23T05:45:09;17.73;;;6.18;;
55053;SDS011;40954;45.668;18.980;2022-07-23T05:47:42;7.45;;;5.32;;
55053;SDS011;40954;45.668;18.980;2022-07-23T05:50:08;11.50;;;5.57;;
55053;SDS011;40954;45.668;18.980;2022-07-23T05:52:35;8.40;;;4.80;;
55053;SDS011;40954;45.668;18.980;2022-07-23T05:55:01;12.65;;;7.22;;
55053;SDS011;40954;45.668;18.980;2022-07-23T05:57:27;11.25;;;5.75;;
55053;SDS011;40954;45.668;18.980;2022-07-23T05:59:53;11.38;;;5.40;;
55053;SDS011;40954;45.668;18.980;2022-07-23T06:02:19;11.45;;;6.35;;
55053;SDS011;40954;45.668;18.980;2022-07-23T06:04:45;11.73;;;5.90;;
55053;SDS011;40954;45.668;18.980;2022-07-23T06:07:14;13.98;;;5.50;;
55053;SDS011;40954;45.668;18.980;2022-07-23T06:09:40;10.13;;;5.03;;
55053;SDS011;40954;45.668;18.980;2022-07-23T06:12:06;12.73;;;6.43;;
55053;SDS011;40954;45.668;18.980;2022-07-23T06:14:32;11.25;;;6.00;;
55053;SDS011;40954;45.668;18.980;2022-07-23T06:16:58;10.30;;;6.07;;
55053;SDS011;40954;45.668;18.980;2022-07-23T06:19:25;13.98;;;6.40;;
55053;SDS011;40954;45.668;18.980;2022-07-23T06:21:51;11.13;;;6.82;;
55053;SDS011;40954;45.668;18.980;2022-07-23T06:24:17;10.43;;;5.72;;
55053;SDS011;40954;45.668;18.980;2022-07-23T06:26:43;12.82;;;5.40;;
55053;SDS011;40954;45.668;18.980;2022-07-23T06:29:09;11.55;;;5.85;;
55053;SDS011;40954;45.668;18.980;2022-07-23T06:31:36;15.43;;;7.28;;
55053;SDS011;40954;45.668;18.980;2022-07-23T06:34:02;28.02;;;11.90;;
55053;SDS011;40954;45.668;18.980;2022-07-23T06:36:28;32.05;;;14.23;;
55053;SDS011;40954;45.668;18.980;2022-07-23T06:38:54;26.77;;;12.07;;
55053;SDS011;40954;45.668;18.980;2022-07-23T06:41:20;20.88;;;10.90;;
55053;SDS011;40954;45.668;18.980;2022-07-23T06:43:47;14.55;;;8.27;;
55053;SDS011;40954;45.668;18.980;2022-07-23T06:46:13;15.02;;;6.95;;
55053;SDS011;40954;45.668;18.980;2022-07-23T06:48:39;9.98;;;5.55;;
55053;SDS011;40954;45.668;18.980;2022-07-23T06:51:06;19.17;;;6.95;;
55053;SDS011;40954;45.668;18.980;2022-07-23T06:53:32;10.07;;;5.97;;
55053;SDS011;40954;45.668;18.980;2022-07-23T06:55:58;10.20;;;5.90;;
55053;SDS011;40954;45.668;18.980;2022-07-23T06:58:24;8.88;;;6.03;;
55053;SDS011;40954;45.668;18.980;2022-07-23T07:00:50;11.05;;;5.47;;
55053;SDS011;40954;45.668;18.980;2022-07-23T07:03:17;8.40;;;5.90;;
55053;SDS011;40954;45.668;18.980;2022-07-23T07:05:43;8.77;;;6.03;;
55053;SDS011;40954;45.668;18.980;2022-07-23T07:08:09;12.93;;;6.40;;
55053;SDS011;40954;45.668;18.980;2022-07-23T07:10:35;12.80;;;7.40;;
55053;SDS011;40954;45.668;18.980;2022-07-23T07:13:02;13.90;;;7.10;;
55053;SDS011;40954;45.668;18.980;2022-07-23T07:15:28;13.60;;;6.78;;
55053;SDS011;40954;45.668;18.980;2022-07-23T07:17:54;18.67;;;7.75;;
55053;SDS011;40954;45.668;18.980;2022-07-23T07:20:20;13.38;;;7.07;;
55053;SDS011;40954;45.668;18.980;2022-07-23T07:22:46;16.83;;;8.95;;
55053;SDS011;40954;45.668;18.980;2022-07-23T07:25:12;15.02;;;8.50;;
55053;SDS011;40954;45.668;18.980;2022-07-23T07:27:38;16.42;;;8.45;;
55053;SDS011;40954;45.668;18.980;2022-07-23T07:30:04;15.07;;;8.73;;
55053;SDS011;40954;45.668;18.980;2022-07-23T07:32:31;15.73;;;8.52;;
55053;SDS011;40954;45.668;18.980;2022-07-23T07:35:01;18.45;;;10.65;;
55053;SDS011;40954;45.668;18.980;2022-07-23T07:37:28;22.80;;;9.18;;
55053;SDS011;40954;45.668;18.980;2022-07-23T07:39:54;14.32;;;8.57;;
55053;SDS011;40954;45.668;18.980;2022-07-23T07:42:20;14.88;;;8.75;;
55053;SDS011;40954;45.668;18.980;2022-07-23T07:44:46;18.67;;;8.40;;
55053;SDS011;40954;45.668;18.980;2022-07-23T07:47:12;13.10;;;7.53;;
55053;SDS011;40954;45.668;18.980;2022-07-23T07:49:40;12.10;;;7.85;;
55053;SDS011;40954;45.668;18.980;2022-07-23T07:52:07;12.98;;;6.68;;
55053;SDS011;40954;45.668;18.980;2022-07-23T07:54:33;12.73;;;6.22;;
55053;SDS011;40954;45.668;18.980;2022-07-23T07:56:59;10.02;;;6.55;;
55053;SDS011;40954;45.668;18.980;2022-07-23T07:59:25;18.20;;;6.90;;
55053;SDS011;40954;45.668;18.980;2022-07-23T08:01:51;14.23;;;6.53;;
55053;SDS011;40954;45.668;18.980;2022-07-23T08:04:17;12.23;;;6.03;;
55053;SDS011;40954;45.668;18.980;2022-07-23T08:06:43;12.27;;;6.95;;
55053;SDS011;40954;45.668;18.980;2022-07-23T08:09:09;9.00;;;6.03;;
55053;SDS011;40954;45.668;18.980;2022-07-23T08:11:35;9.85;;;5.65;;
55053;SDS011;40954;45.668;18.980;2022-07-23T08:14:01;12.00;;;6.93;;
55053;SDS011;40954;45.668;18.980;2022-07-23T08:16:28;11.65;;;6.75;;
55053;SDS011;40954;45.668;18.980;2022-07-23T08:18:54;10.23;;;5.00;;
55053;SDS011;40954;45.668;18.980;2022-07-23T08:21:20;9.02;;;5.22;;
55053;SDS011;40954;45.668;18.980;2022-07-23T08:23:46;12.40;;;5.05;;
55053;SDS011;40954;45.668;18.980;2022-07-23T08:26:12;14.23;;;6.28;;
55053;SDS011;40954;45.668;18.980;2022-07-23T08:28:38;9.35;;;5.85;;
55053;SDS011;40954;45.668;18.980;2022-07-23T08:31:04;13.32;;;5.13;;
55053;SDS011;40954;45.668;18.980;2022-07-23T08:33:31;13.38;;;5.93;;
55053;SDS011;40954;45.668;18.980;2022-07-23T08:35:57;15.15;;;5.57;;
55053;SDS011;40954;45.668;18.980;2022-07-23T08:38:23;7.38;;;4.90;;
55053;SDS011;40954;45.668;18.980;2022-07-23T08:40:53;6.63;;;5.07;;
55053;SDS011;40954;45.668;18.980;2022-07-23T08:43:22;10.25;;;5.82;;
55053;SDS011;40954;45.668;18.980;2022-07-23T08:45:49;6.60;;;5.28;;
55053;SDS011;40954;45.668;18.980;2022-07-23T08:48:19;6.95;;;4.35;;
55053;SDS011;40954;45.668;18.980;2022-07-23T08:50:46;9.43;;;5.13;;
55053;SDS011;40954;45.668;18.980;2022-07-23T08:53:12;12.38;;;5.28;;
55053;SDS011;40954;45.668;18.980;2022-07-23T08:55:39;8.55;;;4.72;;
55053;SDS011;40954;45.668;18.980;2022-07-23T08:58:05;11.85;;;4.85;;
55053;SDS011;40954;45.668;18.980;2022-07-23T09:00:32;10.10;;;4.00;;
55053;SDS011;40954;45.668;18.980;2022-07-23T09:02:58;9.43;;;5.30;;
55053;SDS011;40954;45.668;18.980;2022-07-23T09:05:24;8.50;;;4.78;;
55053;SDS011;40954;45.668;18.980;2022-07-23T09:10:51;9.63;;;4.57;;
55053;SDS011;40954;45.668;18.980;2022-07-23T09:13:38;11.13;;;4.15;;
55053;SDS011;40954;45.668;18.980;2022-07-23T09:16:17;10.55;;;4.32;;
55053;SDS011;40954;45.668;18.980;2022-07-23T09:23:44;7.47;;;4.30;;
55053;SDS011;40954;45.668;18.980;2022-07-23T09:26:21;7.20;;;4.20;;
55053;SDS011;40954;45.668;18.980;2022-07-23T09:28:55;4.90;;;3.65;;
55053;SDS011;40954;45.668;18.980;2022-07-23T09:31:21;8.77;;;4.20;;
55053;SDS011;40954;45.668;18.980;2022-07-23T09:33:48;9.07;;;3.33;;
55053;SDS011;40954;45.668;18.980;2022-07-23T09:36:14;6.68;;;4.00;;
55053;SDS011;40954;45.668;18.980;2022-07-23T09:38:50;6.20;;;3.90;;
55053;SDS011;40954;45.668;18.980;2022-07-23T09:41:16;4.78;;;3.67;;
55053;SDS011;40954;45.668;18.980;2022-07-23T09:43:42;12.52;;;4.15;;
55053;SDS011;40954;45.668;18.980;2022-07-23T09:46:18;8.75;;;3.88;;
55053;SDS011;40954;45.668;18.980;2022-07-23T09:48:46;6.80;;;3.97;;
55053;SDS011;40954;45.668;18.980;2022-07-23T09:51:12;8.50;;;4.25;;
55053;SDS011;40954;45.668;18.980;2022-07-23T09:53:51;9.70;;;4.38;;
55053;SDS011;40954;45.668;18.980;2022-07-23T09:56:17;4.90;;;3.40;;
55053;SDS011;40954;45.668;18.980;2022-07-23T09:58:45;6.10;;;3.70;;
55053;SDS011;40954;45.668;18.980;2022-07-23T10:03:43;7.18;;;3.03;;
55053;SDS011;40954;45.668;18.980;2022-07-23T10:06:09;5.63;;;3.70;;
55053;SDS011;40954;45.668;18.980;2022-07-23T10:08:35;6.82;;;3.00;;
55053;SDS011;40954;45.668;18.980;2022-07-23T10:11:02;4.28;;;3.05;;
55053;SDS011;40954;45.668;18.980;2022-07-23T10:13:29;4.80;;;3.10;;
55053;SDS011;40954;45.668;18.980;2022-07-23T10:16:15;5.25;;;3.17;;
55053;SDS011;40954;45.668;18.980;2022-07-23T10:18:41;4.25;;;3.40;;
55053;SDS011;40954;45.668;18.980;2022-07-23T10:21:07;6.85;;;3.20;;
55053;SDS011;40954;45.668;18.980;2022-07-23T10:23:45;5.47;;;2.83;;
55053;SDS011;40954;45.668;18.980;2022-07-23T10:26:19;8.77;;;2.83;;
55053;SDS011;40954;45.668;18.980;2022-07-23T10:29:00;7.22;;;3.47;;
55053;SDS011;40954;45.668;18.980;2022-07-23T10:34:12;4.93;;;2.95;;
55053;SDS011;40954;45.668;18.980;2022-07-23T10:39:24;5.78;;;3.08;;
55053;SDS011;40954;45.668;18.980;2022-07-23T10:41:50;9.25;;;3.38;;
55053;SDS011;40954;45.668;18.980;2022-07-23T10:44:19;8.43;;;3.55;;
55053;SDS011;40954;45.668;18.980;2022-07-23T10:46:58;4.13;;;2.60;;
55053;SDS011;40954;45.668;18.980;2022-07-23T10:49:26;5.35;;;3.25;;
55053;SDS011;40954;45.668;18.980;2022-07-23T10:54:37;4.60;;;3.05;;
55053;SDS011;40954;45.668;18.980;2022-07-23T10:57:09;4.55;;;2.80;;
55053;SDS011;40954;45.668;18.980;2022-07-23T11:02:21;5.82;;;2.67;;
55053;SDS011;40954;45.668;18.980;2022-07-23T11:04:51;3.70;;;2.50;;
55053;SDS011;40954;45.668;18.980;2022-07-23T11:07:18;5.18;;;3.10;;
55053;SDS011;40954;45.668;18.980;2022-07-23T11:09:44;5.72;;;2.88;;
55053;SDS011;40954;45.668;18.980;2022-07-23T11:15:09;5.32;;;3.30;;
55053;SDS011;40954;45.668;18.980;2022-07-23T11:17:57;7.35;;;2.72;;
55053;SDS011;40954;45.668;18.980;2022-07-23T11:20:25;6.75;;;3.00;;
55053;SDS011;40954;45.668;18.980;2022-07-23T11:22:52;5.20;;;3.33;;
55053;SDS011;40954;45.668;18.980;2022-07-23T11:27:50;4.90;;;2.95;;
55053;SDS011;40954;45.668;18.980;2022-07-23T11:32:52;5.20;;;2.60;;
55053;SDS011;40954;45.668;18.980;2022-07-23T11:35:22;6.60;;;2.80;;
55053;SDS011;40954;45.668;18.980;2022-07-23T11:37:49;7.47;;;3.13;;
55053;SDS011;40954;45.668;18.980;2022-07-23T11:40:19;5.20;;;2.80;;
55053;SDS011;40954;45.668;18.980;2022-07-23T11:42:52;4.90;;;3.10;;
55053;SDS011;40954;45.668;18.980;2022-07-23T11:45:18;7.80;;;3.22;;
55053;SDS011;40954;45.668;18.980;2022-07-23T11:47:44;4.70;;;2.97;;
55053;SDS011;40954;45.668;18.980;2022-07-23T11:50:11;6.53;;;2.90;;
55053;SDS011;40954;45.668;18.980;2022-07-23T11:52:38;5.53;;;2.78;;
55053;SDS011;40954;45.668;18.980;2022-07-23T11:55:05;4.15;;;3.35;;
55053;SDS011;40954;45.668;18.980;2022-07-23T11:57:33;3.08;;;2.80;;
55053;SDS011;40954;45.668;18.980;2022-07-23T12:02:36;6.03;;;3.10;;
55053;SDS011;40954;45.668;18.980;2022-07-23T12:05:03;5.82;;;2.85;;
55053;SDS011;40954;45.668;18.980;2022-07-23T12:07:37;5.72;;;3.13;;
55053;SDS011;40954;45.668;18.980;2022-07-23T12:10:14;5.85;;;3.15;;
55053;SDS011;40954;45.668;18.980;2022-07-23T12:12:42;3.90;;;3.20;;
55053;SDS011;40954;45.668;18.980;2022-07-23T12:15:09;9.93;;;3.10;;
55053;SDS011;40954;45.668;18.980;2022-07-23T12:17:36;5.68;;;3.10;;
55053;SDS011;40954;45.668;18.980;2022-07-23T12:20:04;3.17;;;2.80;;
55053;SDS011;40954;45.668;18.980;2022-07-23T12:22:38;8.52;;;3.55;;
55053;SDS011;40954;45.668;18.980;2022-07-23T12:25:10;6.57;;;3.00;;
55053;SDS011;40954;45.668;18.980;2022-07-23T12:27:36;3.88;;;2.90;;
55053;SDS011;40954;45.668;18.980;2022-07-23T12:30:15;7.45;;;3.20;;
55053;SDS011;40954;45.668;18.980;2022-07-23T12:32:43;4.22;;;2.92;;
55053;SDS011;40954;45.668;18.980;2022-07-23T12:35:11;7.97;;;3.13;;
55053;SDS011;40954;45.668;18.980;2022-07-23T12:37:38;4.95;;;3.22;;
55053;SDS011;40954;45.668;18.980;2022-07-23T12:40:18;6.68;;;3.17;;
55053;SDS011;40954;45.668;18.980;2022-07-23T12:42:45;5.82;;;3.03;;
55053;SDS011;40954;45.668;18.980;2022-07-23T12:45:11;4.03;;;3.38;;
55053;SDS011;40954;45.668;18.980;2022-07-23T12:47:52;5.05;;;3.15;;
55053;SDS011;40954;45.668;18.980;2022-07-23T12:50:34;7.60;;;3.53;;
55053;SDS011;40954;45.668;18.980;2022-07-23T12:55:27;6.28;;;3.10;;
55053;SDS011;40954;45.668;18.980;2022-07-23T12:57:53;3.85;;;2.95;;
55053;SDS011;40954;45.668;18.980;2022-07-23T13:00:29;5.43;;;2.95;;
55053;SDS011;40954;45.668;18.980;2022-07-23T13:02:56;7.72;;;3.25;;
55053;SDS011;40954;45.668;18.980;2022-07-23T13:05:22;7.55;;;3.60;;
55053;SDS011;40954;45.668;18.980;2022-07-23T13:07:48;7.10;;;3.10;;
55053;SDS011;40954;45.668;18.980;2022-07-23T13:10:14;6.43;;;3.30;;
55053;SDS011;40954;45.668;18.980;2022-07-23T13:12:40;7.88;;;3.20;;
55053;SDS011;40954;45.668;18.980;2022-07-23T13:15:06;5.28;;;3.08;;
55053;SDS011;40954;45.668;18.980;2022-07-23T13:17:32;7.47;;;3.22;;
55053;SDS011;40954;45.668;18.980;2022-07-23T13:19:58;3.55;;;2.90;;
55053;SDS011;40954;45.668;18.980;2022-07-23T13:22:24;3.60;;;3.30;;
55053;SDS011;40954;45.668;18.980;2022-07-23T13:24:50;6.75;;;3.38;;
55053;SDS011;40954;45.668;18.980;2022-07-23T13:27:17;5.53;;;2.90;;
55053;SDS011;40954;45.668;18.980;2022-07-23T13:29:43;6.07;;;3.35;;
55053;SDS011;40954;45.668;18.980;2022-07-23T13:32:09;6.68;;;3.63;;
55053;SDS011;40954;45.668;18.980;2022-07-23T13:34:35;4.95;;;2.97;;
55053;SDS011;40954;45.668;18.980;2022-07-23T13:37:01;8.27;;;3.17;;
55053;SDS011;40954;45.668;18.980;2022-07-23T13:39:27;4.15;;;3.22;;
55053;SDS011;40954;45.668;18.980;2022-07-23T13:41:53;3.40;;;3.08;;
55053;SDS011;40954;45.668;18.980;2022-07-23T13:44:19;4.63;;;3.22;;
55053;SDS011;40954;45.668;18.980;2022-07-23T13:46:46;9.68;;;5.07;;
55053;SDS011;40954;45.668;18.980;2022-07-23T13:49:12;8.48;;;3.60;;
55053;SDS011;40954;45.668;18.980;2022-07-23T13:51:38;8.55;;;3.47;;
55053;SDS011;40954;45.668;18.980;2022-07-23T13:54:04;4.47;;;3.55;;
55053;SDS011;40954;45.668;18.980;2022-07-23T13:56:30;9.75;;;3.63;;
55053;SDS011;40954;45.668;18.980;2022-07-23T13:58:56;7.75;;;3.30;;
55053;SDS011;40954;45.668;18.980;2022-07-23T14:01:22;6.97;;;3.20;;
55053;SDS011;40954;45.668;18.980;2022-07-23T14:03:48;4.78;;;3.38;;
55053;SDS011;40954;45.668;18.980;2022-07-23T14:06:14;4.03;;;3.28;;
55053;SDS011;40954;45.668;18.980;2022-07-23T14:08:40;6.88;;;3.20;;
55053;SDS011;40954;45.668;18.980;2022-07-23T14:11:06;4.45;;;3.22;;
55053;SDS011;40954;45.668;18.980;2022-07-23T14:13:32;7.53;;;3.58;;
55053;SDS011;40954;45.668;18.980;2022-07-23T14:15:58;4.53;;;2.95;;
55053;SDS011;40954;45.668;18.980;2022-07-23T14:18:24;5.53;;;3.58;;
55053;SDS011;40954;45.668;18.980;2022-07-23T14:20:50;4.97;;;3.35;;
55053;SDS011;40954;45.668;18.980;2022-07-23T14:23:16;4.93;;;3.42;;
55053;SDS011;40954;45.668;18.980;2022-07-23T14:25:43;3.65;;;3.20;;
55053;SDS011;40954;45.668;18.980;2022-07-23T14:28:09;6.88;;;3.03;;
55053;SDS011;40954;45.668;18.980;2022-07-23T14:30:36;4.90;;;3.42;;
55053;SDS011;40954;45.668;18.980;2022-07-23T14:33:03;7.43;;;3.65;;
55053;SDS011;40954;45.668;18.980;2022-07-23T14:35:29;3.45;;;3.15;;
55053;SDS011;40954;45.668;18.980;2022-07-23T14:37:55;6.45;;;3.58;;
55053;SDS011;40954;45.668;18.980;2022-07-23T14:40:22;9.07;;;3.65;;
55053;SDS011;40954;45.668;18.980;2022-07-23T14:42:48;7.00;;;3.95;;
55053;SDS011;40954;45.668;18.980;2022-07-23T14:45:14;7.47;;;3.70;;
55053;SDS011;40954;45.668;18.980;2022-07-23T14:47:40;4.97;;;3.30;;
55053;SDS011;40954;45.668;18.980;2022-07-23T14:50:06;4.07;;;3.67;;
55053;SDS011;40954;45.668;18.980;2022-07-23T14:52:33;3.80;;;3.50;;
55053;SDS011;40954;45.668;18.980;2022-07-23T14:54:59;8.48;;;3.65;;
55053;SDS011;40954;45.668;18.980;2022-07-23T14:57:25;6.70;;;3.53;;
55053;SDS011;40954;45.668;18.980;2022-07-23T14:59:51;4.97;;;3.95;;
55053;SDS011;40954;45.668;18.980;2022-07-23T15:02:17;7.18;;;3.67;;